Time;durP1;ratioP1;P1;durP2;ratioP2;P2;SDS_P1;SDS_P2;PMS_P1;PMS_P2;Temp;Humidity;BMP_temperature;BMP_pressure;BME280_temperature;BME280_humidity;BME280_pressure;Samples;Min_cycle;Max_cycle;Signal;HPM_P1;HPM_P2
2024/02/20 00:01:44;;;;;;;0.20;0.00;;;;;;;;;;4958815;28;20096;-85
2024/02/20 00:04:10;;;;;;;0.20;0.10;;;;;;;;;;4959872;28;20490;-86
2024/02/20 00:06:36;;;;;;;0.20;0.10;;;;;;;;;;4958323;28;20078;-87
2024/02/20 00:09:03;;;;;;;0.20;0.10;;;;;;;;;;4959000;28;20522;-88
2024/02/20 00:11:29;;;;;;;0.20;0.10;;;;;;;;;;4980759;28;20041;-87
2024/02/20 00:13:56;;;;;;;0.20;0.00;;;;;;;;;;4974875;28;20054;-86
2024/02/20 00:16:22;;;;;;;0.20;0.10;;;;;;;;;;4961076;28;20046;-87
2024/02/20 00:18:50;;;;;;;0.20;0.00;;;;;;;;;;4959274;28;20041;-88
2024/02/20 00:21:16;;;;;;;0.20;0.10;;;;;;;;;;4958431;28;20417;-86
2024/02/20 00:23:43;;;;;;;0.20;0.10;;;;;;;;;;4963575;28;20045;-88
2024/02/20 00:26:09;;;;;;;0.20;0.10;;;;;;;;;;4973458;28;20046;-87
2024/02/20 00:28:40;;;;;;;0.20;0.10;;;;;;;;;;4966356;28;20046;-87
2024/02/20 00:31:06;;;;;;;0.20;0.08;;;;;;;;;;4980040;28;20510;-87
2024/02/20 00:33:32;;;;;;;0.20;0.10;;;;;;;;;;4960039;28;20038;-87
2024/02/20 00:36:02;;;;;;;0.20;0.10;;;;;;;;;;4974050;28;20181;-90
2024/02/20 00:38:28;;;;;;;0.20;0.10;;;;;;;;;;4973913;28;20046;-89
2024/02/20 00:40:55;;;;;;;0.20;0.05;;;;;;;;;;4973930;28;20061;-86
2024/02/20 00:43:21;;;;;;;0.20;0.10;;;;;;;;;;4976447;28;20121;-86
2024/02/20 00:45:47;;;;;;;0.20;0.00;;;;;;;;;;4961698;28;20474;-85
2024/02/20 00:48:14;;;;;;;0.20;0.10;;;;;;;;;;4978118;28;20034;-85
2024/02/20 00:50:41;;;;;;;0.20;0.00;;;;;;;;;;4975135;28;20093;-87
2024/02/20 00:53:08;;;;;;;0.20;0.10;;;;;;;;;;4955144;28;20050;-87
2024/02/20 00:55:34;;;;;;;0.20;0.10;;;;;;;;;;4973134;28;20038;-87
2024/02/20 00:58:00;;;;;;;0.20;0.10;;;;;;;;;;4974571;28;20042;-88
2024/02/20 01:00:26;;;;;;;0.20;0.10;;;;;;;;;;4976636;28;20045;-86
2024/02/20 01:02:53;;;;;;;0.20;0.00;;;;;;;;;;4976186;28;20038;-87
2024/02/20 01:05:19;;;;;;;0.20;0.05;;;;;;;;;;4961898;28;20379;-85
2024/02/20 01:07:45;;;;;;;0.20;0.05;;;;;;;;;;4958752;28;20042;-87
2024/02/20 01:10:12;;;;;;;0.20;0.10;;;;;;;;;;4956798;28;20589;-87
2024/02/20 01:12:38;;;;;;;0.20;0.00;;;;;;;;;;4958655;28;20089;-87
2024/02/20 01:15:05;;;;;;;0.20;0.00;;;;;;;;;;4973776;28;20039;-88
2024/02/20 01:17:31;;;;;;;0.20;0.00;;;;;;;;;;4953890;28;20057;-86
2024/02/20 01:19:58;;;;;;;0.20;0.10;;;;;;;;;;4959438;28;20046;-86
2024/02/20 01:22:24;;;;;;;0.20;0.10;;;;;;;;;;4972087;28;20164;-87
2024/02/20 01:24:50;;;;;;;0.25;0.25;;;;;;;;;;4955575;28;20042;-86
2024/02/20 01:27:16;;;;;;;0.20;0.10;;;;;;;;;;4955137;28;20050;-87
2024/02/20 01:29:43;;;;;;;0.20;0.00;;;;;;;;;;4956316;28;20043;-87
2024/02/20 01:32:09;;;;;;;0.20;0.03;;;;;;;;;;4973261;28;20375;-86
2024/02/20 01:34:36;;;;;;;0.20;0.10;;;;;;;;;;4957035;28;20038;-84
2024/02/20 01:37:02;;;;;;;0.20;0.10;;;;;;;;;;4960213;28;20586;-87
2024/02/20 01:39:28;;;;;;;0.20;0.10;;;;;;;;;;4952746;28;20046;-86
2024/02/20 01:41:54;;;;;;;0.20;0.10;;;;;;;;;;4973808;28;20069;-89
2024/02/20 01:44:20;;;;;;;0.20;0.10;;;;;;;;;;4959538;28;20050;-88
2024/02/20 01:46:46;;;;;;;0.20;0.10;;;;;;;;;;4955892;28;20387;-88
2024/02/20 01:49:12;;;;;;;0.20;0.00;;;;;;;;;;4955644;28;20038;-87
2024/02/20 01:51:38;;;;;;;0.20;0.10;;;;;;;;;;4956033;28;20042;-87
2024/02/20 01:54:05;;;;;;;0.20;0.10;;;;;;;;;;4959638;28;20035;-85
2024/02/20 01:56:33;;;;;;;0.20;0.10;;;;;;;;;;5001524;28;20121;-85
2024/02/20 01:58:59;;;;;;;0.20;0.10;;;;;;;;;;4987228;28;20118;-86
2024/02/20 02:01:25;;;;;;;0.20;0.10;;;;;;;;;;4971942;28;20042;-88
2024/02/20 02:03:53;;;;;;;0.20;0.10;;;;;;;;;;4990658;28;20038;-85
2024/02/20 02:06:29;;;;;;;0.20;0.10;;;;;;;;;;4957431;28;20042;-88
2024/02/20 02:08:55;;;;;;;0.20;0.10;;;;;;;;;;4960620;28;20042;-89
2024/02/20 02:11:21;;;;;;;0.20;0.00;;;;;;;;;;4970838;28;20038;-85
2024/02/20 02:13:47;;;;;;;0.20;0.10;;;;;;;;;;4971200;28;20034;-86
2024/02/20 02:16:13;;;;;;;0.20;0.00;;;;;;;;;;4960445;28;20042;-88
2024/02/20 02:18:39;;;;;;;0.20;0.10;;;;;;;;;;4973274;28;20494;-87
2024/02/20 02:21:05;;;;;;;0.20;0.00;;;;;;;;;;4977266;28;20038;-87
2024/02/20 02:23:31;;;;;;;0.20;0.08;;;;;;;;;;4972727;28;20097;-87
2024/02/20 02:25:57;;;;;;;0.20;0.00;;;;;;;;;;4970678;28;20038;-87
2024/02/20 02:28:23;;;;;;;0.20;0.00;;;;;;;;;;4972749;28;20088;-87
2024/02/20 02:30:49;;;;;;;0.20;0.00;;;;;;;;;;4962312;28;20256;-87
2024/02/20 02:33:15;;;;;;;0.20;0.00;;;;;;;;;;4974150;28;20042;-87
2024/02/20 02:35:41;;;;;;;0.20;0.10;;;;;;;;;;4962858;28;20176;-84
2024/02/20 02:38:07;;;;;;;0.20;0.10;;;;;;;;;;4970432;28;20125;-85
2024/02/20 02:40:33;;;;;;;0.20;0.10;;;;;;;;;;4969122;28;20539;-88
2024/02/20 02:42:59;;;;;;;0.20;0.10;;;;;;;;;;4954720;28;20568;-85
2024/02/20 02:45:31;;;;;;;0.20;0.00;;;;;;;;;;4952950;28;20048;-90
2024/02/20 02:47:57;;;;;;;0.70;0.25;;;;;;;;;;4967850;28;20058;-88
2024/02/20 02:50:23;;;;;;;0.20;0.10;;;;;;;;;;4951297;28;20030;-87
2024/02/20 02:52:49;;;;;;;0.20;0.10;;;;;;;;;;4959022;28;20031;-86
2024/02/20 02:55:15;;;;;;;0.20;0.10;;;;;;;;;;4970377;28;20513;-87
2024/02/20 02:57:41;;;;;;;0.20;0.00;;;;;;;;;;4958791;28;20169;-90
2024/02/20 03:00:11;;;;;;;0.30;0.20;;;;;;;;;;4953717;28;20077;-88
2024/02/20 03:02:37;;;;;;;0.20;0.00;;;;;;;;;;4956678;28;20046;-86
2024/02/20 03:05:04;;;;;;;0.20;0.00;;;;;;;;;;4956600;28;20102;-88
2024/02/20 03:07:32;;;;;;;0.20;0.00;;;;;;;;;;4968144;28;20070;-87
2024/02/20 03:09:58;;;;;;;0.20;0.10;;;;;;;;;;4957990;28;20039;-87
2024/02/20 03:12:24;;;;;;;0.20;0.00;;;;;;;;;;4957823;28;20034;-87
2024/02/20 03:14:51;;;;;;;0.20;0.10;;;;;;;;;;4957088;28;20066;-88
2024/02/20 03:17:18;;;;;;;0.20;0.00;;;;;;;;;;4978219;28;20046;-87
2024/02/20 03:19:44;;;;;;;0.20;0.00;;;;;;;;;;4971657;28;20050;-88
2024/02/20 03:22:11;;;;;;;0.20;0.00;;;;;;;;;;4959335;28;20042;-89
2024/02/20 03:24:37;;;;;;;0.20;0.10;;;;;;;;;;4990951;28;20041;-88
2024/02/20 03:27:05;;;;;;;0.38;0.32;;;;;;;;;;4981804;28;20422;-90
2024/02/20 03:29:31;;;;;;;0.20;0.00;;;;;;;;;;4969993;28;20532;-89
2024/02/20 03:32:00;;;;;;;0.20;0.10;;;;;;;;;;4974351;28;20042;-88
2024/02/20 03:34:26;;;;;;;0.20;0.05;;;;;;;;;;4967931;28;20111;-88
2024/02/20 03:36:52;;;;;;;0.20;0.10;;;;;;;;;;4979374;28;20045;-88
2024/02/20 03:39:18;;;;;;;0.20;0.10;;;;;;;;;;4970140;28;20061;-87
2024/02/20 03:41:44;;;;;;;0.20;0.10;;;;;;;;;;4965979;28;20043;-87
2024/02/20 03:44:10;;;;;;;0.20;0.03;;;;;;;;;;4970705;28;20042;-87
2024/02/20 03:46:36;;;;;;;0.20;0.10;;;;;;;;;;4959974;28;20881;-87
2024/02/20 03:49:02;;;;;;;0.20;0.08;;;;;;;;;;4975243;28;20042;-86
2024/02/20 03:51:28;;;;;;;0.20;0.10;;;;;;;;;;4967045;28;20528;-87
2024/02/20 03:53:54;;;;;;;0.20;0.00;;;;;;;;;;4985757;28;20034;-89
2024/02/20 03:56:20;;;;;;;0.20;0.00;;;;;;;;;;4967916;28;20099;-85
2024/02/20 03:58:46;;;;;;;0.20;0.10;;;;;;;;;;4959219;28;20038;-85
2024/02/20 04:01:12;;;;;;;0.20;0.10;;;;;;;;;;4972619;28;20092;-87
2024/02/20 04:03:38;;;;;;;0.20;0.00;;;;;;;;;;4962478;28;20133;-87
2024/02/20 04:06:08;;;;;;;0.20;0.10;;;;;;;;;;4971793;28;20046;-87
2024/02/20 04:08:34;;;;;;;0.20;0.00;;;;;;;;;;4977698;28;20038;-87
2024/02/20 04:11:00;;;;;;;0.20;0.10;;;;;;;;;;4961559;28;20030;-87
2024/02/20 04:13:26;;;;;;;0.20;0.10;;;;;;;;;;4955585;28;20053;-86
2024/02/20 04:15:53;;;;;;;0.20;0.00;;;;;;;;;;4958553;28;20414;-86
2024/02/20 04:18:19;;;;;;;0.20;0.10;;;;;;;;;;4976296;28;20127;-86
2024/02/20 04:20:45;;;;;;;0.20;0.10;;;;;;;;;;4957982;28;20042;-87
2024/02/20 04:23:11;;;;;;;0.20;0.10;;;;;;;;;;4970057;28;20081;-88
2024/02/20 04:25:37;;;;;;;0.20;0.10;;;;;;;;;;4969999;28;20053;-89
2024/02/20 04:28:03;;;;;;;0.20;0.08;;;;;;;;;;4974875;28;20038;-87
2024/02/20 04:30:29;;;;;;;0.20;0.10;;;;;;;;;;4958932;28;20026;-86
2024/02/20 04:32:56;;;;;;;0.20;0.10;;;;;;;;;;4966992;28;20045;-85
2024/02/20 04:35:22;;;;;;;0.20;0.00;;;;;;;;;;4985400;28;20045;-84
2024/02/20 04:37:48;;;;;;;0.20;0.00;;;;;;;;;;4985966;28;20035;-86
2024/02/20 04:40:16;;;;;;;0.20;0.10;;;;;;;;;;4979497;28;20046;-85
2024/02/20 04:42:42;;;;;;;0.20;0.10;;;;;;;;;;4984775;28;20576;-87
2024/02/20 04:45:09;;;;;;;0.20;0.10;;;;;;;;;;4966339;28;20503;-87
2024/02/20 04:47:35;;;;;;;0.20;0.10;;;;;;;;;;4953443;28;20035;-85
2024/02/20 04:50:01;;;;;;;0.20;0.05;;;;;;;;;;4984565;28;20102;-86
2024/02/20 04:52:27;;;;;;;0.20;0.10;;;;;;;;;;4975767;28;20038;-85
2024/02/20 04:54:53;;;;;;;0.20;0.00;;;;;;;;;;4978374;28;20069;-87
2024/02/20 04:57:19;;;;;;;0.20;0.10;;;;;;;;;;4985113;28;20069;-86
2024/02/20 04:59:46;;;;;;;0.20;0.13;;;;;;;;;;4974302;28;20049;-84
2024/02/20 05:02:12;;;;;;;0.20;0.00;;;;;;;;;;4972198;28;20052;-85
2024/02/20 05:04:38;;;;;;;0.20;0.10;;;;;;;;;;4979260;28;20093;-86
2024/02/20 05:07:04;;;;;;;0.20;0.10;;;;;;;;;;4978363;28;20089;-85
2024/02/20 05:09:30;;;;;;;0.20;0.10;;;;;;;;;;4965632;28;20053;-86
2024/02/20 05:11:56;;;;;;;0.20;0.03;;;;;;;;;;4978407;28;20047;-85
2024/02/20 05:14:22;;;;;;;0.20;0.10;;;;;;;;;;4963393;28;20038;-86
2024/02/20 05:16:48;;;;;;;0.20;0.10;;;;;;;;;;4965432;28;20045;-85
2024/02/20 05:19:14;;;;;;;0.20;0.10;;;;;;;;;;4964636;28;20035;-86
2024/02/20 05:21:41;;;;;;;0.20;0.00;;;;;;;;;;4963986;28;20049;-86
2024/02/20 05:24:08;;;;;;;0.20;0.00;;;;;;;;;;4967682;28;20526;-84
2024/02/20 05:26:34;;;;;;;0.20;0.10;;;;;;;;;;4962888;28;20046;-86
2024/02/20 05:29:02;;;;;;;0.20;0.10;;;;;;;;;;4980069;28;20045;-87
2024/02/20 05:31:32;;;;;;;0.20;0.10;;;;;;;;;;4962457;28;20034;-87
2024/02/20 05:33:59;;;;;;;0.20;0.10;;;;;;;;;;4958504;28;20045;-84
2024/02/20 05:36:33;;;;;;;0.20;0.00;;;;;;;;;;4958370;28;20450;-84
2024/02/20 05:39:00;;;;;;;0.20;0.05;;;;;;;;;;4971388;28;20045;-88
2024/02/20 05:41:28;;;;;;;0.20;0.00;;;;;;;;;;4965030;28;20065;-85
2024/02/20 05:43:57;;;;;;;0.20;0.10;;;;;;;;;;4958349;28;20081;-85
2024/02/20 05:46:30;;;;;;;0.20;0.10;;;;;;;;;;4956944;28;20073;-85
2024/02/20 05:48:56;;;;;;;0.20;0.10;;;;;;;;;;4957759;28;20042;-86
2024/02/20 05:51:23;;;;;;;0.20;0.10;;;;;;;;;;4969681;28;20049;-85
2024/02/20 05:53:52;;;;;;;0.20;0.10;;;;;;;;;;4996355;28;20040;-87
2024/02/20 05:56:19;;;;;;;0.20;0.10;;;;;;;;;;4958186;28;20121;-87
2024/02/20 05:58:46;;;;;;;0.20;0.10;;;;;;;;;;4978153;28;20108;-85
2024/02/20 06:01:13;;;;;;;0.20;0.10;;;;;;;;;;4981909;28;20467;-86
2024/02/20 06:03:40;;;;;;;0.20;0.10;;;;;;;;;;4978051;28;20050;-86
2024/02/20 06:06:07;;;;;;;0.20;0.10;;;;;;;;;;4973111;28;20038;-84
2024/02/20 06:08:34;;;;;;;0.20;0.10;;;;;;;;;;4975529;28;20084;-84
2024/02/20 06:11:00;;;;;;;0.20;0.10;;;;;;;;;;4961419;28;20038;-86
2024/02/20 06:13:26;;;;;;;0.20;0.00;;;;;;;;;;4960762;28;20039;-85
2024/02/20 06:15:52;;;;;;;0.20;0.10;;;;;;;;;;4977327;28;20042;-85
2024/02/20 06:18:18;;;;;;;0.20;0.10;;;;;;;;;;4962495;28;20053;-84
2024/02/20 06:20:47;;;;;;;0.20;0.03;;;;;;;;;;4988372;28;20052;-85
2024/02/20 06:23:13;;;;;;;0.20;0.10;;;;;;;;;;4984498;28;20062;-85
2024/02/20 06:25:43;;;;;;;0.20;0.00;;;;;;;;;;4978419;28;20046;-85
2024/02/20 06:28:09;;;;;;;0.20;0.10;;;;;;;;;;4977118;28;20042;-85
2024/02/20 06:30:35;;;;;;;0.20;0.10;;;;;;;;;;4968715;28;20098;-86
2024/02/20 06:33:03;;;;;;;0.20;0.10;;;;;;;;;;4977726;28;20572;-85
2024/02/20 06:35:29;;;;;;;0.20;0.10;;;;;;;;;;4963445;28;20134;-85
2024/02/20 06:37:55;;;;;;;0.20;0.08;;;;;;;;;;4973306;28;20069;-86
2024/02/20 06:40:21;;;;;;;0.20;0.10;;;;;;;;;;4978186;28;20038;-85
2024/02/20 06:42:47;;;;;;;0.20;0.00;;;;;;;;;;4981546;28;20042;-85
2024/02/20 06:45:13;;;;;;;0.20;0.00;;;;;;;;;;4987700;28;20090;-87
2024/02/20 06:47:40;;;;;;;0.20;0.10;;;;;;;;;;4968568;28;20038;-86
2024/02/20 06:50:12;;;;;;;0.20;0.10;;;;;;;;;;4977155;28;20049;-87
2024/02/20 06:52:40;;;;;;;0.20;0.10;;;;;;;;;;4964517;28;20038;-85
2024/02/20 06:55:06;;;;;;;0.20;0.10;;;;;;;;;;4966129;28;20062;-85
2024/02/20 06:57:35;;;;;;;0.20;0.10;;;;;;;;;;4962067;28;20066;-87
2024/02/20 07:00:01;;;;;;;0.20;0.10;;;;;;;;;;4972259;28;21229;-86
2024/02/20 07:02:27;;;;;;;0.20;0.00;;;;;;;;;;4966610;28;20045;-87
2024/02/20 07:04:54;;;;;;;0.20;0.10;;;;;;;;;;4982686;28;20049;-86
2024/02/20 07:07:21;;;;;;;0.20;0.10;;;;;;;;;;4987866;28;20038;-86
2024/02/20 07:09:47;;;;;;;0.20;0.00;;;;;;;;;;4984287;28;20042;-84
2024/02/20 07:12:13;;;;;;;0.20;0.10;;;;;;;;;;4975114;28;20049;-85
2024/02/20 07:14:39;;;;;;;0.20;0.00;;;;;;;;;;4967766;28;20030;-86
2024/02/20 07:17:05;;;;;;;0.20;0.03;;;;;;;;;;5005612;23;20482;-86
2024/02/20 07:19:31;;;;;;;0.20;0.10;;;;;;;;;;4977733;28;20041;-85
2024/02/20 07:21:57;;;;;;;0.20;0.00;;;;;;;;;;4973883;28;20079;-85
2024/02/20 07:24:24;;;;;;;0.20;0.10;;;;;;;;;;4996311;28;20030;-85
2024/02/20 07:26:50;;;;;;;0.20;0.00;;;;;;;;;;4979653;28;20061;-85
2024/02/20 07:29:18;;;;;;;0.20;0.10;;;;;;;;;;4988838;28;20048;-83
2024/02/20 07:31:47;;;;;;;0.20;0.10;;;;;;;;;;4990935;28;20085;-86
2024/02/20 07:34:13;;;;;;;0.20;0.10;;;;;;;;;;5025029;28;20503;-85
2024/02/20 07:36:39;;;;;;;0.20;0.10;;;;;;;;;;4991044;28;20064;-84
2024/02/20 07:39:06;;;;;;;0.20;0.03;;;;;;;;;;5009198;28;20575;-84
2024/02/20 07:41:33;;;;;;;0.20;0.10;;;;;;;;;;5010998;28;20052;-85
2024/02/20 07:43:59;;;;;;;0.20;0.10;;;;;;;;;;4989306;28;20457;-85
2024/02/20 07:46:25;;;;;;;0.20;0.00;;;;;;;;;;5005658;28;20029;-83
2024/02/20 07:48:51;;;;;;;0.20;0.10;;;;;;;;;;5007941;28;20053;-84
2024/02/20 07:51:17;;;;;;;0.20;0.10;;;;;;;;;;5003792;28;20045;-84
2024/02/20 07:53:43;;;;;;;0.20;0.00;;;;;;;;;;5002556;28;20041;-85
2024/02/20 07:56:09;;;;;;;1.30;1.20;;;;;;;;;;4990909;28;20560;-85
2024/02/20 07:58:38;;;;;;;0.20;0.10;;;;;;;;;;5004471;28;20045;-85
2024/02/20 08:01:13;;;;;;;0.20;0.10;;;;;;;;;;4991516;28;20045;-83
2024/02/20 08:03:39;;;;;;;0.20;0.10;;;;;;;;;;4989832;28;20058;-84
2024/02/20 08:06:05;;;;;;;0.20;0.10;;;;;;;;;;5007159;28;20115;-83
2024/02/20 08:08:32;;;;;;;0.20;0.00;;;;;;;;;;5003524;28;20096;-83
2024/02/20 08:10:58;;;;;;;0.20;0.00;;;;;;;;;;5005252;28;20049;-83
2024/02/20 08:13:25;;;;;;;0.20;0.00;;;;;;;;;;5009410;28;20029;-83
2024/02/20 08:15:51;;;;;;;0.20;0.10;;;;;;;;;;5003103;28;20041;-85
2024/02/20 08:18:17;;;;;;;0.20;0.10;;;;;;;;;;5020130;28;20099;-83
2024/02/20 08:20:43;;;;;;;0.20;0.03;;;;;;;;;;5002556;28;20037;-84
2024/02/20 08:23:09;;;;;;;0.75;0.60;;;;;;;;;;4989695;28;20092;-84
2024/02/20 08:25:35;;;;;;;0.20;0.03;;;;;;;;;;5008270;28;20101;-85
2024/02/20 08:28:01;;;;;;;0.20;0.00;;;;;;;;;;4989266;28;20037;-84
2024/02/20 08:30:27;;;;;;;0.20;0.00;;;;;;;;;;5003512;28;20079;-84
2024/02/20 08:32:53;;;;;;;0.35;0.25;;;;;;;;;;5004608;28;20038;-84
2024/02/20 08:35:19;;;;;;;0.20;0.10;;;;;;;;;;5002643;28;20045;-84
2024/02/20 08:37:45;;;;;;;0.20;0.10;;;;;;;;;;5006576;28;20041;-85
2024/02/20 08:40:12;;;;;;;0.20;0.00;;;;;;;;;;5004315;28;20246;-84
2024/02/20 08:42:38;;;;;;;0.20;0.10;;;;;;;;;;4987790;28;20129;-84
2024/02/20 08:45:05;;;;;;;0.30;0.30;;;;;;;;;;4987228;28;20042;-82
2024/02/20 08:47:31;;;;;;;0.20;0.10;;;;;;;;;;5004518;28;20038;-82
2024/02/20 08:49:57;;;;;;;0.20;0.00;;;;;;;;;;4991517;28;20045;-84
2024/02/20 08:52:24;;;;;;;0.20;0.10;;;;;;;;;;4990676;28;20615;-82
2024/02/20 08:54:50;;;;;;;3.40;0.65;;;;;;;;;;5001660;28;20468;-85
2024/02/20 08:57:16;;;;;;;0.20;0.10;;;;;;;;;;5006031;28;20041;-83
2024/02/20 08:59:42;;;;;;;0.20;0.10;;;;;;;;;;4992891;28;20099;-84
2024/02/20 09:02:08;;;;;;;0.20;0.10;;;;;;;;;;5005311;28;20052;-83
2024/02/20 09:04:34;;;;;;;1.13;0.32;;;;;;;;;;4989617;28;20282;-84
2024/02/20 09:07:00;;;;;;;0.30;0.15;;;;;;;;;;5006576;28;20033;-84
2024/02/20 09:09:26;;;;;;;0.20;0.00;;;;;;;;;;4993079;28;20037;-84
2024/02/20 09:11:52;;;;;;;0.20;0.00;;;;;;;;;;4991267;28;20034;-84
2024/02/20 09:14:19;;;;;;;0.20;0.10;;;;;;;;;;5002572;28;20225;-84
2024/02/20 09:16:45;;;;;;;0.20;0.00;;;;;;;;;;5003787;28;20099;-84
2024/02/20 09:19:11;;;;;;;0.30;0.22;;;;;;;;;;4986342;28;20544;-83
2024/02/20 09:21:38;;;;;;;0.20;0.10;;;;;;;;;;5007699;28;20069;-85
2024/02/20 09:24:04;;;;;;;0.20;0.00;;;;;;;;;;4987355;28;20063;-82
2024/02/20 09:26:31;;;;;;;0.20;0.10;;;;;;;;;;4991960;28;20032;-86
2024/02/20 09:28:57;;;;;;;0.20;0.10;;;;;;;;;;4992318;28;20049;-83
2024/02/20 09:31:23;;;;;;;0.20;0.15;;;;;;;;;;4987246;28;20454;-82
2024/02/20 09:33:49;;;;;;;0.20;0.10;;;;;;;;;;4991294;28;20517;-84
2024/02/20 09:36:15;;;;;;;0.20;0.10;;;;;;;;;;4987424;28;20584;-85
2024/02/20 09:38:41;;;;;;;0.20;0.10;;;;;;;;;;4988434;28;20092;-81
2024/02/20 09:41:07;;;;;;;0.20;0.10;;;;;;;;;;4993999;28;20505;-84
2024/02/20 09:43:34;;;;;;;0.20;0.10;;;;;;;;;;4992302;28;20516;-84
2024/02/20 09:46:08;;;;;;;0.20;0.00;;;;;;;;;;4988116;28;20483;-84
2024/02/20 09:48:34;;;;;;;0.20;0.10;;;;;;;;;;4991351;28;20402;-83
2024/02/20 09:51:02;;;;;;;0.20;0.10;;;;;;;;;;5007262;28;20379;-84
2024/02/20 09:53:34;;;;;;;0.20;0.10;;;;;;;;;;5002566;28;20148;-84
2024/02/20 09:56:00;;;;;;;0.20;0.10;;;;;;;;;;4986519;28;20072;-85
2024/02/20 09:58:26;;;;;;;1.55;1.45;;;;;;;;;;4993191;28;20091;-83
2024/02/20 10:00:55;;;;;;;0.20;0.10;;;;;;;;;;5003438;28;20041;-82
2024/02/20 10:03:22;;;;;;;0.20;0.10;;;;;;;;;;5021308;28;20041;-84
2024/02/20 10:05:48;;;;;;;0.20;0.10;;;;;;;;;;5004577;28;20313;-84
2024/02/20 10:08:14;;;;;;;0.20;0.10;;;;;;;;;;5004889;28;20041;-84
2024/02/20 10:10:42;;;;;;;0.20;0.10;;;;;;;;;;5007076;28;20064;-84
2024/02/20 10:13:08;;;;;;;3.90;1.65;;;;;;;;;;5001818;28;20120;-83
2024/02/20 10:15:34;;;;;;;0.25;0.22;;;;;;;;;;4990467;28;20080;-82
2024/02/20 10:18:01;;;;;;;0.20;0.10;;;;;;;;;;5002760;28;20042;-84
2024/02/20 10:20:28;;;;;;;0.20;0.10;;;;;;;;;;4991160;28;20051;-83
2024/02/20 10:23:21;;;;;;;0.20;0.08;;;;;;;;;;4986609;28;20072;-84
2024/02/20 10:25:56;;;;;;;0.20;0.10;;;;;;;;;;4987688;28;20778;-84
2024/02/20 10:28:22;;;;;;;0.20;0.10;;;;;;;;;;5000499;28;20354;-84
2024/02/20 10:30:48;;;;;;;0.20;0.10;;;;;;;;;;4988772;28;20056;-84
2024/02/20 10:33:14;;;;;;;0.20;0.08;;;;;;;;;;5003511;28;20037;-82
2024/02/20 10:35:41;;;;;;;0.20;0.10;;;;;;;;;;5003628;28;20121;-85
2024/02/20 10:38:10;;;;;;;0.45;0.45;;;;;;;;;;4986701;28;20073;-82
2024/02/20 10:40:37;;;;;;;0.20;0.10;;;;;;;;;;5006176;28;20107;-85
2024/02/20 10:43:06;;;;;;;0.40;0.35;;;;;;;;;;4987394;28;20038;-84
2024/02/20 10:45:34;;;;;;;0.40;0.05;;;;;;;;;;5004733;28;20116;-88
2024/02/20 10:48:03;;;;;;;1.95;0.17;;;;;;;;;;4989011;28;20068;-85
2024/02/20 10:50:31;;;;;;;0.40;0.17;;;;;;;;;;4990251;28;20520;-85
2024/02/20 10:53:00;;;;;;;0.20;0.00;;;;;;;;;;4990202;28;20480;-85
2024/02/20 10:55:29;;;;;;;0.20;0.20;;;;;;;;;;4991292;28;20095;-84
2024/02/20 10:57:55;;;;;;;0.20;0.10;;;;;;;;;;5003777;28;20108;-84
2024/02/20 11:00:21;;;;;;;0.50;0.50;;;;;;;;;;5005137;28;20128;-85
2024/02/20 11:02:48;;;;;;;0.20;0.10;;;;;;;;;;5001637;28;20075;-83
2024/02/20 11:05:15;;;;;;;0.20;0.10;;;;;;;;;;5002296;28;20034;-83
2024/02/20 11:07:41;;;;;;;0.20;0.10;;;;;;;;;;4989926;28;20505;-82
2024/02/20 11:10:17;;;;;;;0.20;0.10;;;;;;;;;;4985832;28;20056;-84
2024/02/20 11:12:44;;;;;;;0.28;0.20;;;;;;;;;;4987939;28;20399;-84
2024/02/20 11:15:13;;;;;;;0.30;0.15;;;;;;;;;;4985462;28;22483;-81
2024/02/20 11:17:40;;;;;;;0.20;0.10;;;;;;;;;;4985416;28;20046;-84
2024/02/20 11:20:15;;;;;;;0.20;0.00;;;;;;;;;;4999767;28;20097;-84
2024/02/20 11:22:42;;;;;;;0.20;0.10;;;;;;;;;;4984061;28;20045;-84
2024/02/20 11:25:09;;;;;;;0.90;0.30;;;;;;;;;;4981169;28;20046;-84
2024/02/20 11:27:39;;;;;;;1.13;0.22;;;;;;;;;;4984823;28;20058;-85
2024/02/20 11:30:25;;;;;;;0.20;0.10;;;;;;;;;;5001676;28;20732;-83
2024/02/20 11:32:55;;;;;;;0.20;0.10;;;;;;;;;;4990312;28;20096;-84
2024/02/20 11:35:27;;;;;;;0.20;0.00;;;;;;;;;;4988633;28;20030;-83
2024/02/20 11:37:54;;;;;;;0.20;0.10;;;;;;;;;;5000303;28;20052;-84
2024/02/20 11:40:33;;;;;;;0.20;0.10;;;;;;;;;;4985537;28;20516;-85
2024/02/20 11:43:06;;;;;;;0.20;0.10;;;;;;;;;;4989383;28;20129;-84
2024/02/20 11:45:33;;;;;;;0.20;0.10;;;;;;;;;;4998331;28;20061;-83
2024/02/20 11:48:00;;;;;;;0.20;0.03;;;;;;;;;;5003445;28;20041;-85
2024/02/20 11:50:28;;;;;;;0.80;0.30;;;;;;;;;;4985582;28;20037;-83
2024/02/20 11:53:01;;;;;;;0.20;0.00;;;;;;;;;;4987592;28;20092;-84
2024/02/20 11:55:28;;;;;;;0.20;0.10;;;;;;;;;;4989699;28;20521;-85
2024/02/20 11:57:54;;;;;;;0.20;0.10;;;;;;;;;;4990187;28;20109;-85
2024/02/20 12:00:21;;;;;;;0.20;0.10;;;;;;;;;;4994043;28;20046;-86
2024/02/20 12:02:49;;;;;;;1.75;0.65;;;;;;;;;;4981529;28;20093;-86
2024/02/20 12:05:22;;;;;;;0.20;0.00;;;;;;;;;;4990477;28;20089;-83
2024/02/20 12:07:48;;;;;;;0.20;0.00;;;;;;;;;;5000418;28;20138;-85
2024/02/20 12:10:18;;;;;;;0.20;0.10;;;;;;;;;;4992574;28;20046;-83
2024/02/20 12:12:44;;;;;;;0.20;0.08;;;;;;;;;;5001576;28;20089;-85
2024/02/20 12:15:11;;;;;;;0.20;0.00;;;;;;;;;;4993034;28;20038;-85
2024/02/20 12:17:46;;;;;;;0.20;0.10;;;;;;;;;;5002519;28;20525;-84
2024/02/20 12:20:13;;;;;;;0.20;0.10;;;;;;;;;;4985366;28;20042;-85
2024/02/20 12:22:40;;;;;;;0.20;0.00;;;;;;;;;;4987062;28;20497;-86
2024/02/20 12:25:07;;;;;;;0.22;0.20;;;;;;;;;;5001984;28;20073;-82
2024/02/20 12:27:34;;;;;;;0.20;0.00;;;;;;;;;;5005259;28;20030;-86
2024/02/20 12:30:00;;;;;;;0.20;0.10;;;;;;;;;;5004813;28;20034;-82
2024/02/20 12:32:26;;;;;;;5.70;1.38;;;;;;;;;;4984144;28;20034;-84
2024/02/20 12:34:53;;;;;;;0.20;0.20;;;;;;;;;;4987260;28;20441;-87
2024/02/20 12:37:20;;;;;;;0.20;0.15;;;;;;;;;;4995072;28;20425;-84
2024/02/20 12:39:46;;;;;;;0.20;0.10;;;;;;;;;;4988875;28;20129;-84
2024/02/20 12:42:13;;;;;;;0.30;0.30;;;;;;;;;;5002031;28;20509;-86
2024/02/20 12:44:39;;;;;;;0.20;0.10;;;;;;;;;;4987905;28;20405;-83
2024/02/20 12:47:06;;;;;;;0.20;0.10;;;;;;;;;;4986617;28;20038;-87
2024/02/20 12:49:32;;;;;;;0.30;0.28;;;;;;;;;;5002457;28;20042;-87
2024/02/20 12:51:58;;;;;;;0.47;0.20;;;;;;;;;;4987867;28;20498;-84
2024/02/20 12:54:24;;;;;;;0.20;0.10;;;;;;;;;;4977033;28;20121;-85
2024/02/20 12:56:51;;;;;;;0.20;0.10;;;;;;;;;;4989461;28;20052;-84
2024/02/20 12:59:25;;;;;;;0.20;0.00;;;;;;;;;;4992582;28;20045;-86
2024/02/20 13:01:51;;;;;;;0.20;0.10;;;;;;;;;;4990731;28;20671;-84
2024/02/20 13:04:20;;;;;;;0.20;0.10;;;;;;;;;;5004704;28;20038;-87
2024/02/20 13:06:46;;;;;;;0.20;0.10;;;;;;;;;;4999274;28;20045;-83
2024/02/20 13:09:12;;;;;;;0.20;0.03;;;;;;;;;;4989980;28;20065;-85
2024/02/20 13:11:38;;;;;;;0.20;0.15;;;;;;;;;;4986686;28;20494;-84
2024/02/20 13:14:04;;;;;;;1.20;1.17;;;;;;;;;;4990087;28;20049;-83
2024/02/20 13:16:30;;;;;;;0.20;0.10;;;;;;;;;;4987087;28;20042;-85
2024/02/20 13:18:56;;;;;;;0.20;0.10;;;;;;;;;;4989909;23;20449;-86
2024/02/20 13:21:22;;;;;;;0.20;0.05;;;;;;;;;;4974418;28;22294;-84
2024/02/20 13:23:56;;;;;;;0.20;0.00;;;;;;;;;;4991704;28;20049;-88
2024/02/20 13:29:25;;;;;;;0.20;0.10;;;;;;;;;;4964943;28;20042;-88
2024/02/20 13:31:51;;;;;;;0.40;0.25;;;;;;;;;;4999732;28;20049;-87
2024/02/20 13:34:30;;;;;;;0.20;0.10;;;;;;;;;;4988625;28;20046;-87
2024/02/20 13:36:59;;;;;;;0.20;0.10;;;;;;;;;;5001932;28;20050;-87
2024/02/20 13:39:31;;;;;;;0.20;0.05;;;;;;;;;;4960823;28;20053;-89
2024/02/20 13:41:57;;;;;;;0.20;0.00;;;;;;;;;;4997042;28;20045;-86
2024/02/20 13:44:32;;;;;;;0.20;0.10;;;;;;;;;;4990730;28;20046;-88
2024/02/20 13:47:04;;;;;;;0.30;0.25;;;;;;;;;;4980059;28;20038;-88
2024/02/20 13:49:31;;;;;;;0.20;0.10;;;;;;;;;;4994358;28;20415;-84
2024/02/20 13:51:57;;;;;;;0.20;0.00;;;;;;;;;;4987366;28;20216;-85
2024/02/20 13:54:27;;;;;;;0.20;0.10;;;;;;;;;;4987797;28;20101;-86
2024/02/20 13:56:53;;;;;;;0.20;0.10;;;;;;;;;;4977964;28;20042;-87
2024/02/20 13:59:19;;;;;;;0.20;0.20;;;;;;;;;;4986256;28;20042;-88
2024/02/20 14:01:45;;;;;;;0.20;0.08;;;;;;;;;;4984531;28;20137;-90
2024/02/20 14:04:11;;;;;;;0.20;0.10;;;;;;;;;;4956334;28;20150;-84
2024/02/20 14:06:38;;;;;;;0.30;0.25;;;;;;;;;;5001450;28;20066;-87
2024/02/20 14:09:05;;;;;;;0.20;0.03;;;;;;;;;;4981411;28;20039;-84
2024/02/20 14:11:32;;;;;;;0.20;0.05;;;;;;;;;;4984596;28;20039;-83
2024/02/20 14:13:58;;;;;;;0.20;0.17;;;;;;;;;;4974799;28;20046;-88
2024/02/20 14:16:24;;;;;;;0.20;0.10;;;;;;;;;;4990031;28;20077;-88
2024/02/20 14:18:50;;;;;;;0.20;0.10;;;;;;;;;;4982682;28;20085;-89
2024/02/20 14:21:16;;;;;;;0.43;0.43;;;;;;;;;;4983091;28;20173;-86
2024/02/20 14:23:42;;;;;;;0.20;0.10;;;;;;;;;;4993427;28;20042;-84
2024/02/20 14:26:08;;;;;;;0.20;0.10;;;;;;;;;;4971033;28;20486;-86
2024/02/20 14:28:37;;;;;;;0.20;0.10;;;;;;;;;;4971559;28;20502;-84
2024/02/20 14:31:03;;;;;;;0.75;0.75;;;;;;;;;;4974006;28;20442;-87
2024/02/20 14:33:29;;;;;;;0.20;0.10;;;;;;;;;;5002471;28;20042;-87
2024/02/20 14:35:56;;;;;;;0.20;0.03;;;;;;;;;;4984645;28;20415;-85
2024/02/20 14:38:22;;;;;;;0.20;0.00;;;;;;;;;;4973318;28;20050;-88
2024/02/20 14:40:51;;;;;;;0.20;0.10;;;;;;;;;;4977394;28;20482;-89
2024/02/20 14:43:19;;;;;;;1.55;0.75;;;;;;;;;;4968691;28;20046;-88
2024/02/20 14:45:46;;;;;;;0.20;0.10;;;;;;;;;;4988009;28;20034;-87